createdAt,value
2022-09-29T00:01:04.675Z,12.91
2022-09-29T00:03:31.718Z,12.91
2022-09-29T00:05:58.964Z,12.91
2022-09-29T00:08:30.026Z,12.89
2022-09-29T00:10:57.319Z,12.86
2022-09-29T00:13:24.276Z,12.84
2022-09-29T00:16:09.828Z,12.88
2022-09-29T00:18:36.829Z,12.87
2022-09-29T00:21:21.563Z,12.87
2022-09-29T00:23:50.005Z,12.85
2022-09-29T00:26:23.094Z,12.84
2022-09-29T00:28:55.495Z,12.83
2022-09-29T00:31:24.917Z,12.84
2022-09-29T00:33:52.498Z,12.78
2022-09-29T00:36:21.954Z,12.83
2022-09-29T00:38:52.669Z,12.79
2022-09-29T00:41:29.494Z,12.83
2022-09-29T00:44:03.519Z,12.83
2022-09-29T00:46:58.448Z,12.83
2022-09-29T00:49:36.307Z,12.82
2022-09-29T00:52:14.410Z,12.81
2022-09-29T00:54:50.556Z,12.81
2022-09-29T00:57:22.060Z,12.81
2022-09-29T01:00:02.910Z,12.80
2022-09-29T01:02:32.605Z,12.80
2022-09-29T01:05:00.851Z,12.79
2022-09-29T01:07:28.380Z,12.78
2022-09-29T01:09:57.203Z,12.77
2022-09-29T01:12:24.326Z,12.74
2022-09-29T01:14:53.827Z,12.75
2022-09-29T01:17:22.004Z,12.73
2022-09-29T01:20:04.583Z,12.72
2022-09-29T01:22:58.615Z,12.70
2022-09-29T01:26:14.045Z,12.68
2022-09-29T01:29:33.130Z,12.66
2022-09-29T01:32:42.944Z,12.63
2022-09-29T01:35:24.512Z,12.61
2022-09-29T01:38:27.936Z,12.59
2022-09-29T01:41:17.175Z,12.59
2022-09-29T01:43:57.263Z,12.59
2022-09-29T01:46:30.362Z,12.59
2022-09-29T01:48:58.803Z,12.59
2022-09-29T01:51:32.502Z,12.61
2022-09-29T01:54:04.885Z,12.62
2022-09-29T01:56:39.020Z,12.62
2022-09-29T01:59:26.254Z,12.60
2022-09-29T02:02:00.912Z,12.56
2022-09-29T02:04:35.784Z,12.59
2022-09-29T02:07:12.066Z,12.59
2022-09-29T02:09:42.979Z,12.58
2022-09-29T02:12:14.191Z,12.58
2022-09-29T02:14:46.434Z,12.58
2022-09-29T02:17:20.088Z,12.57
2022-09-29T02:19:51.609Z,12.53
2022-09-29T02:22:18.868Z,12.54
2022-09-29T02:24:46.128Z,12.54
2022-09-29T02:27:41.057Z,12.48
2022-09-29T02:30:09.095Z,12.47
2022-09-29T02:32:36.525Z,12.48
2022-09-29T02:35:07.872Z,12.48
2022-09-29T02:38:01.276Z,12.46
2022-09-29T02:41:07.238Z,12.42
2022-09-29T02:43:58.643Z,12.43
2022-09-29T02:47:04.168Z,12.41
2022-09-29T02:50:11.157Z,12.40
2022-09-29T02:52:55.099Z,12.38
2022-09-29T02:55:41.844Z,12.35
2022-09-29T02:58:21.342Z,12.33
2022-09-29T03:00:48.337Z,12.36
2022-09-29T03:03:15.317Z,12.33
2022-09-29T03:05:42.234Z,12.37
2022-09-29T03:08:09.086Z,12.38
2022-09-29T03:10:35.908Z,12.38
2022-09-29T03:13:02.783Z,12.38
2022-09-29T03:15:29.790Z,12.37
2022-09-29T03:17:57.308Z,12.32
2022-09-29T03:20:24.652Z,12.37
2022-09-29T03:22:52.075Z,12.35
2022-09-29T03:25:18.988Z,12.33
2022-09-29T03:27:46.348Z,12.35
2022-09-29T03:30:13.556Z,12.30
2022-09-29T03:32:40.399Z,12.34
2022-09-29T03:35:08.024Z,12.34
2022-09-29T03:37:34.860Z,12.33
2022-09-29T03:40:02.634Z,12.32
2022-09-29T03:42:29.473Z,12.31
2022-09-29T03:44:56.317Z,12.30
2022-09-29T03:47:23.273Z,12.30
2022-09-29T03:49:50.224Z,12.29
2022-09-29T03:52:17.532Z,12.29
2022-09-29T03:54:44.402Z,12.27
2022-09-29T03:57:11.285Z,12.26
2022-09-29T03:59:42.047Z,12.24
2022-09-29T04:02:11.683Z,12.22
2022-09-29T04:04:38.602Z,12.22
2022-09-29T04:07:05.483Z,12.21
2022-09-29T04:09:32.351Z,12.22
2022-09-29T04:11:59.220Z,12.19
2022-09-29T04:14:26.084Z,12.18
2022-09-29T04:16:52.960Z,12.16
2022-09-29T04:19:19.958Z,12.15
2022-09-29T04:21:47.008Z,12.14
2022-09-29T04:24:13.879Z,12.12
2022-09-29T04:26:40.803Z,12.10
2022-09-29T04:29:07.849Z,12.10
2022-09-29T04:31:34.829Z,12.08
2022-09-29T04:34:01.750Z,12.08
2022-09-29T04:36:28.707Z,12.04
2022-09-29T04:38:55.595Z,12.06
2022-09-29T04:41:22.502Z,12.05
2022-09-29T04:43:49.378Z,12.04
2022-09-29T04:46:16.347Z,12.04
2022-09-29T04:48:43.290Z,12.03
2022-09-29T04:51:10.649Z,12.01
2022-09-29T04:53:37.700Z,12.00
2022-09-29T04:56:09.067Z,11.98
2022-09-29T04:58:36.500Z,11.96
2022-09-29T05:01:13.736Z,11.97
2022-09-29T05:03:41.174Z,11.97
2022-09-29T05:06:09.878Z,11.97
2022-09-29T05:08:36.843Z,11.98
2022-09-29T05:11:09.243Z,11.97
2022-09-29T05:13:36.976Z,11.98
2022-09-29T05:16:05.131Z,12.00
2022-09-29T05:18:32.276Z,12.01
2022-09-29T05:23:54.403Z,12.03
2022-09-29T05:26:21.279Z,12.04
2022-09-29T05:28:48.267Z,12.05
2022-09-29T05:31:15.944Z,12.02
2022-09-29T05:33:42.951Z,12.06
2022-09-29T05:36:12.173Z,12.06
2022-09-29T05:38:39.691Z,12.08
2022-09-29T05:41:11.020Z,12.00
2022-09-29T05:43:39.328Z,12.11
2022-09-29T05:46:09.017Z,12.02
2022-09-29T05:48:36.121Z,12.13
2022-09-29T05:51:19.450Z,12.17
2022-09-29T05:53:49.564Z,12.21
2022-09-29T05:56:23.384Z,12.25
2022-09-29T05:58:50.957Z,12.30
2022-09-29T06:01:21.716Z,12.33
2022-09-29T06:03:48.959Z,12.36
2022-09-29T06:06:20.143Z,12.32
2022-09-29T06:08:47.854Z,12.36
2022-09-29T06:11:18.971Z,12.39
2022-09-29T06:13:49.906Z,12.40
2022-09-29T06:16:20.038Z,12.42
2022-09-29T06:18:48.080Z,12.37
2022-09-29T06:21:24.636Z,12.47
2022-09-29T06:23:54.432Z,12.46
2022-09-29T06:26:24.117Z,12.49
2022-09-29T06:28:56.192Z,12.48
2022-09-29T06:31:26.951Z,12.51
2022-09-29T06:34:00.352Z,12.50
2022-09-29T06:37:00.088Z,12.59
2022-09-29T06:39:27.762Z,12.61
2022-09-29T06:41:56.463Z,12.60
2022-09-29T06:44:26.689Z,12.65
2022-09-29T06:46:54.896Z,12.65
2022-09-29T06:49:22.360Z,12.63
2022-09-29T06:51:49.297Z,12.72
2022-09-29T06:54:20.647Z,12.78
2022-09-29T06:56:49.461Z,12.84
2022-09-29T06:59:17.310Z,12.93
2022-09-29T07:01:44.289Z,12.97
2022-09-29T07:04:11.215Z,12.97
2022-09-29T07:06:38.097Z,13.06
2022-09-29T07:09:04.973Z,13.11
2022-09-29T07:11:31.851Z,13.13
2022-09-29T07:13:58.726Z,13.18
2022-09-29T07:16:25.717Z,13.21
2022-09-29T07:18:53.037Z,13.21
2022-09-29T07:21:21.452Z,13.26
2022-09-29T07:23:48.574Z,13.32
2022-09-29T07:26:16.997Z,13.35
2022-09-29T07:28:45.338Z,13.38
2022-09-29T07:31:19.195Z,13.39
2022-09-29T07:33:48.620Z,13.42
2022-09-29T07:36:18.740Z,13.42
2022-09-29T07:38:50.964Z,13.46
2022-09-29T07:41:21.784Z,13.54
2022-09-29T07:43:48.989Z,13.57
2022-09-29T07:46:16.701Z,13.58
2022-09-29T07:48:43.712Z,13.64
2022-09-29T07:51:18.951Z,13.66
2022-09-29T07:53:46.643Z,13.70
2022-09-29T07:56:20.228Z,13.74
2022-09-29T07:58:49.844Z,13.72
2022-09-29T08:01:18.681Z,13.82
2022-09-29T08:03:54.453Z,13.88
2022-09-29T08:06:25.544Z,13.94
2022-09-29T08:09:04.793Z,13.98
2022-09-29T08:11:37.132Z,14.00
2022-09-29T08:14:04.839Z,14.08
2022-09-29T08:16:32.490Z,14.14
2022-09-29T08:19:00.779Z,14.16
2022-09-29T08:21:29.688Z,14.24
2022-09-29T08:23:56.538Z,14.29
2022-09-29T08:26:35.935Z,14.33
2022-09-29T08:29:09.054Z,14.36
2022-09-29T08:31:38.103Z,14.41
2022-09-29T08:34:05.685Z,14.47
2022-09-29T08:36:32.705Z,14.53
2022-09-29T08:39:00.142Z,14.56
2022-09-29T08:41:52.195Z,14.61
2022-09-29T08:44:41.740Z,14.62
2022-09-29T08:47:43.076Z,14.67
2022-09-29T08:50:31.242Z,14.70
2022-09-29T08:53:23.179Z,14.74
2022-09-29T08:56:13.849Z,14.80
2022-09-29T08:58:40.715Z,14.86
2022-09-29T09:01:21.983Z,14.93
2022-09-29T09:04:21.097Z,15.00
2022-09-29T09:07:21.829Z,15.08
2022-09-29T09:09:55.979Z,15.18
2022-09-29T09:13:07.628Z,15.26
2022-09-29T09:15:47.028Z,15.35
2022-09-29T09:18:36.679Z,15.45
2022-09-29T09:21:08.710Z,15.54
2022-09-29T09:23:44.132Z,15.61
2022-09-29T09:26:12.185Z,15.60
2022-09-29T09:29:00.001Z,15.71
2022-09-29T09:31:42.288Z,15.75
2022-09-29T09:34:45.436Z,15.81
2022-09-29T09:37:20.782Z,15.85
2022-09-29T09:40:05.574Z,15.90
2022-09-29T09:42:37.557Z,15.94
2022-09-29T09:45:23.741Z,15.98
2022-09-29T09:47:57.476Z,16.04
2022-09-29T09:50:25.590Z,16.12
2022-09-29T09:52:56.502Z,16.19
2022-09-29T09:55:26.261Z,16.25
2022-09-29T09:58:18.533Z,16.33
2022-09-29T10:01:02.704Z,16.41
2022-09-29T10:03:30.689Z,16.50
2022-09-29T10:05:58.036Z,16.55
2022-09-29T10:08:31.444Z,16.63
2022-09-29T10:10:59.921Z,16.69
2022-09-29T10:13:31.559Z,16.83
2022-09-29T10:16:01.920Z,16.92
2022-09-29T10:18:46.348Z,16.97
2022-09-29T10:21:43.948Z,17.08
2022-09-29T10:24:32.101Z,17.21
2022-09-29T10:27:01.150Z,17.34
2022-09-29T10:29:40.260Z,17.44
2022-09-29T10:32:17.324Z,17.51
2022-09-29T10:34:54.881Z,17.56
2022-09-29T10:37:29.423Z,17.61
2022-09-29T10:40:12.664Z,17.65
2022-09-29T10:42:43.159Z,17.70
2022-09-29T10:45:13.966Z,17.75
2022-09-29T10:47:45.325Z,17.80
2022-09-29T10:50:22.529Z,17.80
2022-09-29T10:53:32.056Z,17.85
2022-09-29T10:56:01.790Z,17.87
2022-09-29T10:58:44.621Z,17.85
2022-09-29T11:01:17.793Z,17.81
2022-09-29T11:04:01.468Z,17.77
2022-09-29T11:06:43.873Z,17.71
2022-09-29T11:09:15.549Z,17.70
2022-09-29T11:11:48.167Z,17.68
2022-09-29T11:14:29.844Z,17.68
2022-09-29T11:17:00.329Z,17.75
2022-09-29T11:19:30.001Z,17.83
2022-09-29T11:22:49.224Z,17.93
2022-09-29T11:25:26.312Z,18.02
2022-09-29T11:28:19.677Z,18.11
2022-09-29T11:31:17.924Z,18.22
2022-09-29T11:34:29.653Z,18.34
2022-09-29T11:37:27.456Z,18.47
2022-09-29T11:40:22.426Z,18.55
2022-09-29T11:43:05.560Z,18.58
2022-09-29T11:45:56.753Z,18.57
2022-09-29T11:48:38.559Z,18.56
2022-09-29T11:51:30.515Z,18.58
2022-09-29T11:54:31.135Z,18.58
2022-09-29T11:57:10.537Z,18.59
2022-09-29T12:00:01.958Z,18.61
2022-09-29T12:03:05.571Z,18.60
2022-09-29T12:06:05.645Z,18.61
2022-09-29T12:09:27.733Z,18.65
2022-09-29T12:12:31.359Z,18.72
2022-09-29T12:18:03.931Z,18.91
2022-09-29T12:20:44.168Z,18.92
2022-09-29T12:23:14.891Z,19.12
2022-09-29T12:26:19.876Z,19.19
2022-09-29T12:29:39.161Z,19.21
2022-09-29T12:32:19.526Z,19.22
2022-09-29T12:35:13.065Z,19.21
2022-09-29T12:37:46.752Z,19.23
2022-09-29T12:40:33.356Z,19.18
2022-09-29T12:43:17.028Z,19.21
2022-09-29T12:46:27.056Z,19.19
2022-09-29T12:49:11.597Z,19.20
2022-09-29T12:51:47.851Z,19.20
2022-09-29T12:54:37.200Z,19.18
2022-09-29T12:57:19.406Z,19.18
2022-09-29T12:59:58.546Z,19.23
2022-09-29T13:02:44.115Z,19.25
2022-09-29T13:06:20.959Z,19.21
2022-09-29T13:09:36.392Z,19.25
2022-09-29T13:12:30.251Z,19.25
2022-09-29T13:15:45.344Z,19.23
2022-09-29T13:18:49.044Z,19.18
2022-09-29T13:22:16.003Z,19.13
2022-09-29T13:25:48.380Z,19.09
2022-09-29T13:28:31.906Z,19.04
2022-09-29T13:31:14.294Z,19.05
2022-09-29T13:33:47.798Z,19.03
2022-09-29T13:36:35.736Z,19.00
2022-09-29T13:39:17.199Z,19.00
2022-09-29T13:41:44.075Z,19.01
2022-09-29T13:44:17.065Z,19.03
2022-09-29T13:46:44.070Z,19.07
2022-09-29T13:49:13.484Z,19.09
2022-09-29T13:51:52.670Z,19.08
2022-09-29T13:54:43.515Z,19.09
2022-09-29T13:57:13.397Z,19.10
2022-09-29T13:59:54.357Z,19.11
2022-09-29T14:02:39.419Z,19.11
2022-09-29T14:05:26.544Z,19.22
2022-09-29T14:07:57.316Z,19.29
2022-09-29T14:10:35.263Z,19.36
2022-09-29T14:13:10.925Z,19.46
2022-09-29T14:16:03.288Z,19.55
2022-09-29T14:18:43.445Z,19.67
2022-09-29T14:21:46.473Z,19.77
2022-09-29T14:24:39.872Z,19.87
2022-09-29T14:27:33.980Z,19.95
2022-09-29T14:30:09.705Z,20.03
2022-09-29T14:32:47.909Z,20.10
2022-09-29T14:35:34.183Z,20.17
2022-09-29T14:38:44.274Z,20.24
2022-09-29T14:41:11.033Z,20.28
2022-09-29T14:44:07.719Z,20.30
2022-09-29T14:47:21.029Z,20.31
2022-09-29T14:50:42.684Z,20.25
2022-09-29T14:53:41.922Z,20.20
2022-09-29T14:56:51.881Z,20.16
2022-09-29T14:59:41.208Z,20.12
2022-09-29T15:02:22.009Z,20.07
2022-09-29T15:04:49.614Z,20.04
2022-09-29T15:07:24.086Z,19.98
2022-09-29T15:09:54.998Z,19.92
2022-09-29T15:12:30.425Z,19.85
2022-09-29T15:14:58.494Z,19.79
2022-09-29T15:17:49.262Z,19.71
2022-09-29T15:20:52.515Z,19.61
2022-09-29T15:23:44.384Z,19.56
2022-09-29T15:26:15.637Z,19.51
2022-09-29T15:28:43.357Z,19.48
2022-09-29T15:31:17.069Z,19.45
2022-09-29T15:33:45.476Z,19.41
2022-09-29T15:36:23.547Z,19.38
2022-09-29T15:39:31.954Z,19.31
2022-09-29T15:42:13.897Z,19.26
2022-09-29T15:44:47.301Z,19.20
2022-09-29T15:47:38.840Z,19.14
2022-09-29T15:50:19.831Z,19.10
2022-09-29T15:52:47.137Z,19.07
2022-09-29T15:55:17.526Z,19.02
2022-09-29T15:57:58.379Z,18.97
2022-09-29T16:00:26.841Z,18.92
2022-09-29T16:03:05.332Z,18.87
2022-09-29T16:05:40.010Z,18.82
2022-09-29T16:08:16.623Z,18.79
2022-09-29T16:11:16.529Z,18.74
2022-09-29T16:13:50.846Z,18.64
2022-09-29T16:16:26.521Z,18.64
2022-09-29T16:18:59.533Z,18.60
2022-09-29T16:21:35.265Z,18.55
2022-09-29T16:24:15.365Z,18.49
2022-09-29T16:26:54.976Z,18.44
2022-09-29T16:29:35.731Z,18.39
2022-09-29T16:32:38.397Z,18.30
2022-09-29T16:35:48.863Z,18.22
2022-09-29T16:38:35.879Z,18.16
2022-09-29T16:41:36.614Z,18.06
2022-09-29T16:44:27.158Z,18.00
2022-09-29T16:47:14.970Z,17.96
2022-09-29T16:49:49.342Z,17.89
2022-09-29T16:52:27.061Z,17.79
2022-09-29T16:55:07.935Z,17.77
2022-09-29T16:57:34.942Z,17.71
2022-09-29T17:00:11.222Z,17.66
2022-09-29T17:02:38.155Z,17.61
2022-09-29T17:05:05.337Z,17.54
2022-09-29T17:07:32.768Z,17.48
2022-09-29T17:10:01.031Z,17.44
2022-09-29T17:12:29.970Z,17.39
2022-09-29T17:14:57.812Z,17.34
2022-09-29T17:17:28.131Z,17.28
2022-09-29T17:19:56.531Z,17.25
2022-09-29T17:22:31.884Z,17.18
2022-09-29T17:24:59.143Z,17.12
2022-09-29T17:27:45.862Z,17.05
2022-09-29T17:30:21.100Z,16.96
2022-09-29T17:32:49.041Z,16.89
2022-09-29T17:35:18.182Z,16.77
2022-09-29T17:37:48.433Z,16.75
2022-09-29T17:40:49.453Z,16.65
2022-09-29T17:43:18.328Z,16.59
2022-09-29T17:45:46.165Z,16.52
2022-09-29T17:48:13.615Z,16.46
2022-09-29T17:50:56.244Z,16.40
2022-09-29T17:53:25.377Z,16.34
2022-09-29T17:55:56.636Z,16.30
2022-09-29T17:58:23.840Z,16.27
2022-09-29T18:00:54.764Z,16.22
2022-09-29T18:03:22.434Z,16.17
2022-09-29T18:05:59.745Z,16.14
2022-09-29T18:08:29.532Z,16.09
2022-09-29T18:10:58.913Z,16.08
2022-09-29T18:13:27.694Z,16.05
2022-09-29T18:15:59.996Z,16.01
2022-09-29T18:18:27.168Z,15.98
2022-09-29T18:20:54.133Z,15.95
2022-09-29T18:23:23.138Z,15.92
2022-09-29T18:25:52.129Z,15.88
2022-09-29T18:28:19.805Z,15.84
2022-09-29T18:30:55.381Z,15.78
2022-09-29T18:33:22.274Z,15.72
2022-09-29T18:35:54.546Z,15.70
2022-09-29T18:38:21.967Z,15.65
2022-09-29T18:40:51.629Z,15.62
2022-09-29T18:43:18.497Z,15.60
2022-09-29T18:45:45.416Z,15.57
2022-09-29T18:48:14.449Z,15.54
2022-09-29T18:50:47.303Z,15.50
2022-09-29T18:53:17.523Z,15.45
2022-09-29T18:55:44.547Z,15.41
2022-09-29T18:58:18.407Z,15.38
2022-09-29T19:00:50.216Z,15.33
2022-09-29T19:03:20.741Z,15.26
2022-09-29T19:05:48.183Z,15.27
2022-09-29T19:08:16.916Z,15.23
2022-09-29T19:10:54.088Z,15.19
2022-09-29T19:13:21.466Z,15.17
2022-09-29T19:15:48.979Z,15.15
2022-09-29T19:18:22.527Z,15.11
2022-09-29T19:20:55.812Z,15.06
2022-09-29T19:23:24.406Z,15.02
2022-09-29T19:25:53.141Z,14.98
2022-09-29T19:28:22.277Z,14.94
2022-09-29T19:30:50.260Z,14.83
2022-09-29T19:33:21.183Z,14.82
2022-09-29T19:35:52.371Z,14.79
2022-09-29T19:38:19.846Z,14.77
2022-09-29T19:40:48.077Z,14.71
2022-09-29T19:43:15.477Z,14.66
2022-09-29T19:45:43.649Z,14.65
2022-09-29T19:48:19.243Z,14.63
2022-09-29T19:51:06.268Z,14.58
2022-09-29T19:53:35.439Z,14.54
2022-09-29T19:56:08.161Z,14.50
2022-09-29T19:58:38.514Z,14.52
2022-09-29T20:01:08.195Z,14.51
2022-09-29T20:03:35.091Z,14.51
2022-09-29T20:06:06.432Z,14.51
2022-09-29T20:08:34.757Z,14.50
2022-09-29T20:11:09.945Z,14.50
2022-09-29T20:13:37.536Z,14.50
2022-09-29T20:16:05.882Z,14.51
2022-09-29T20:18:36.948Z,14.50
2022-09-29T20:21:12.686Z,14.50
2022-09-29T20:23:39.833Z,14.50
2022-09-29T20:26:08.963Z,14.50
2022-09-29T20:28:37.747Z,14.44
2022-09-29T20:31:07.417Z,14.46
2022-09-29T20:33:36.290Z,14.45
2022-09-29T20:36:05.329Z,14.46
2022-09-29T20:38:35.825Z,14.46
2022-09-29T20:41:03.426Z,14.45
2022-09-29T20:43:30.656Z,14.44
2022-09-29T20:46:02.985Z,14.41
2022-09-29T20:48:35.739Z,14.39
2022-09-29T20:51:06.513Z,14.38
2022-09-29T20:53:36.721Z,14.34
2022-09-29T20:56:07.391Z,14.30
2022-09-29T20:58:34.884Z,14.30
2022-09-29T21:01:27.417Z,14.24
2022-09-29T21:03:58.198Z,14.21
2022-09-29T21:06:28.851Z,14.18
2022-09-29T21:08:57.484Z,14.15
2022-09-29T21:11:24.564Z,14.11
2022-09-29T21:13:57.803Z,14.08
2022-09-29T21:16:25.677Z,14.04
2022-09-29T21:18:55.824Z,13.99
2022-09-29T21:21:22.767Z,13.96
2022-09-29T21:23:50.625Z,13.93
2022-09-29T21:26:20.136Z,13.86
2022-09-29T21:28:59.851Z,13.81
2022-09-29T21:31:30.305Z,13.77
2022-09-29T21:34:01.316Z,13.72
2022-09-29T21:36:30.962Z,13.66
2022-09-29T21:38:57.819Z,13.63
2022-09-29T21:41:28.378Z,13.56
2022-09-29T21:43:58.347Z,13.51
2022-09-29T21:46:28.229Z,13.48
2022-09-29T21:48:58.310Z,13.42
2022-09-29T21:51:34.871Z,13.36
2022-09-29T21:54:02.876Z,13.31
2022-09-29T21:56:35.214Z,13.25
2022-09-29T21:59:02.227Z,13.21
2022-09-29T22:01:29.166Z,13.16
2022-09-29T22:03:56.920Z,13.13
2022-09-29T22:06:27.202Z,13.09
2022-09-29T22:08:55.978Z,13.03
2022-09-29T22:11:29.697Z,12.98
2022-09-29T22:13:59.643Z,12.95
2022-09-29T22:16:30.413Z,12.90
2022-09-29T22:19:21.904Z,12.87
2022-09-29T22:21:46.730Z,12.80
2022-09-29T22:24:13.823Z,12.77
2022-09-29T22:26:41.360Z,12.73
2022-09-29T22:29:08.674Z,12.69
2022-09-29T22:31:35.921Z,12.65
2022-09-29T22:34:05.116Z,12.57
2022-09-29T22:36:34.862Z,12.56
2022-09-29T22:39:04.260Z,12.50
2022-09-29T22:41:31.363Z,12.45
2022-09-29T22:43:59.886Z,12.45
2022-09-29T22:46:29.386Z,12.42
2022-09-29T22:48:57.423Z,12.41
2022-09-29T22:51:24.667Z,12.40
2022-09-29T22:53:51.961Z,12.40
2022-09-29T22:56:29.985Z,12.41
2022-09-29T22:59:02.734Z,12.41
2022-09-29T23:01:29.724Z,12.41
2022-09-29T23:03:56.773Z,12.44
2022-09-29T23:06:23.722Z,12.42
2022-09-29T23:08:50.671Z,12.44
2022-09-29T23:11:20.022Z,12.45
2022-09-29T23:13:47.650Z,12.46
2022-09-29T23:16:16.635Z,12.47
2022-09-29T23:18:45.455Z,12.47
2022-09-29T23:21:19.254Z,12.46
2022-09-29T23:23:47.761Z,12.45
2022-09-29T23:26:15.536Z,12.45
2022-09-29T23:28:42.413Z,12.42
2022-09-29T23:31:11.563Z,12.37
2022-09-29T23:33:38.561Z,12.37
2022-09-29T23:36:12.733Z,12.33
2022-09-29T23:39:01.236Z,12.30
2022-09-29T23:41:30.131Z,12.23
2022-09-29T23:44:01.759Z,12.21
2022-09-29T23:46:32.222Z,12.21
2022-09-29T23:49:08.964Z,12.17
2022-09-29T23:51:39.044Z,12.13
2022-09-29T23:54:07.728Z,12.12
2022-09-29T23:56:35.040Z,12.10
2022-09-29T23:59:02.275Z,12.08
